Flight Track Log - Related Links

Times and Time Zones

All times are in EDT time to prevent confusion due to time zone crossing. See the UAL4536 flight status page for this flight to view local times or setup timezone preferences in your user account.

Time Position Orientation Groundspeed Altitude Reporting Facility
EDT Latitude Longitude Course Direction KTS MPH feet Rate Location/Type
Fri 06:20:00 PM 29.9861 -95.3575 20° North 150 173 700  Level Houston Center
Fri 06:20:37 PM 30.0103 -95.3472 20° North 220 253 1,900 1,808 Climbing Houston Center
Fri 06:21:13 PM 30.0333 -95.3272 37° Northeast 182 209 2,900 1,869 Climbing Houston Center
Fri 06:21:38 PM 30.0586 -95.3006 42° Northeast 240 276 3,800 2,032 Climbing Houston Center
Fri 06:22:15 PM 30.0836 -95.2781 38° Northeast 222 255 5,000 2,656 Climbing Houston Center
Fri 06:22:39 PM 30.1128 -95.2503 39° Northeast 249 287 6,500 2,476 Climbing Houston Center
Fri 06:23:18 PM 30.1389 -95.2264 38° Northeast 248 285 7,600 2,020 Climbing Houston Center
Fri 06:24:20 PM 30.2022 -95.1733 36° Northeast 272 313 9,900 1,887 Climbing Houston Center
Fri 06:25:22 PM 30.2875 -95.1039 35° Northeast 307 353 11,500 1,306 Climbing Houston Center
Fri 06:26:24 PM 30.3703 -95.0358 35° Northeast 353 406 12,600 1,065 Climbing Houston Center
Fri 06:27:26 PM 30.4556 -94.9672 35° Northeast 376 433 13,700 1,210 Climbing Houston Center
Fri 06:28:28 PM 30.5481 -94.8961 34° Northeast 393 452 15,100 1,403 Climbing Houston Center
Fri 06:29:30 PM 30.6611 -94.8086 34° Northeast 404 465 16,600 1,306 Climbing Houston Center
Fri 06:30:32 PM 30.7575 -94.7342 34° Northeast 412 474 17,800 1,016 Climbing Houston Center
Fri 06:31:34 PM 30.8558 -94.6589 33° Northeast 422 486 18,700 1,165 Climbing Houston Center
Fri 06:32:15 PM 30.9336 -94.6017 32° Northeast 424 488 19,800 1,426 Climbing Fort Worth Center
Fri 06:33:15 PM 31.0342 -94.5211 34° Northeast 437 503 21,100 1,150 Climbing Fort Worth Center
Fri 06:34:15 PM 31.1142 -94.4581 34° Northeast 437 503 22,100 1,300 Climbing Fort Worth Center
Fri 06:35:15 PM 31.2392 -94.3617 33° Northeast 442 509 23,700 1,450 Climbing Fort Worth Center
Fri 06:36:15 PM 31.3456 -94.2781 34° Northeast 442 509 25,000 1,289 Climbing Fort Worth Center
Fri 06:37:16 PM 31.4481 -94.1992 33° Northeast 447 514 26,300 1,000 Climbing Fort Worth Center
Fri 06:38:15 PM 31.5411 -94.0911 45° Northeast 452 520 27,000 353 Climbing Fort Worth Center
Fri 06:39:15 PM 31.6317 -93.9633 50° Northeast 467 537 27,000 350 Level Fort Worth Center
Fri 06:40:15 PM 31.7078 -93.8483 52° Northeast 483 556 27,700 950 Climbing Fort Worth Center
Fri 06:41:15 PM 31.8022 -93.7150 50° Northeast 508 585 28,900 1,200 Climbing Fort Worth Center
Fri 06:42:15 PM 31.8922 -93.5817 51° Northeast 508 585 30,100 992 Climbing Fort Worth Center
Fri 06:43:16 PM 31.9800 -93.4508 52° Northeast 508 585 30,900 450 Climbing Fort Worth Center
Fri 06:44:15 PM 32.0694 -93.3169 52° Northeast 508 585 31,000 454 Climbing Fort Worth Center
Fri 06:45:15 PM 32.1628 -93.1706 53° Northeast 524 603 31,800 992 Climbing Fort Worth Center
Fri 06:46:16 PM 32.2564 -93.0383 50° Northeast 529 609 33,000 1,150 Climbing Fort Worth Center
Fri 06:47:15 PM 32.3475 -92.9011 52° Northeast 529 609 34,100 958 Climbing Fort Worth Center
Fri 06:48:15 PM 32.4406 -92.7589 52° Northeast 541 623 34,900 446 Climbing Fort Worth Center
Fri 06:49:16 PM 32.5292 -92.6211 53° Northeast 541 623 35,000 50 Climbing Fort Worth Center
Fri 06:50:15 PM 32.6219 -92.4831 51° Northeast 536 617 35,000  Level Fort Worth Center
Fri 06:51:15 PM 32.7144 -92.3397 52° Northeast 528 608 35,000  Level Fort Worth Center
Fri 06:52:15 PM 32.8067 -92.1986 52° Northeast 540 621 35,000  Level Fort Worth Center
Fri 06:53:15 PM 32.8989 -92.0572 52° Northeast 540 621 35,000  Level Fort Worth Center
Fri 06:54:29 PM 33.0072 -91.8833 53° Northeast 547 629 35,000  Level Memphis Center
Fri 06:55:29 PM 33.0986 -91.7411 52° Northeast 547 629 35,000  Level Memphis Center
Fri 06:56:29 PM 33.1939 -91.5936 52° Northeast 547 629 35,000  Level Memphis Center
Fri 06:57:29 PM 33.2872 -91.4508 52° Northeast 547 629 35,000  Level Memphis Center
Fri 06:58:29 PM 33.3781 -91.3075 53° Northeast 547 629 35,000  Level Memphis Center
Fri 06:59:29 PM 33.4708 -91.1642 52° Northeast 547 629 35,000  Level Memphis Center
Fri 07:00:29 PM 33.5594 -91.0228 53° Northeast 547 629 35,000  Level Memphis Center
Fri 07:01:30 PM 33.6500 -90.8786 53° Northeast 547 629 35,000  Level Memphis Center
Fri 07:02:29 PM 33.7400 -90.7369 53° Northeast 542 624 35,000  Level Memphis Center
Fri 07:03:29 PM 33.8386 -90.5772 53° Northeast 542 624 35,000  Level Memphis Center
Fri 07:04:29 PM 33.9286 -90.4322 53° Northeast 542 624 35,000  Level Memphis Center
Fri 07:05:29 PM 34.0183 -90.2894 53° Northeast 543 625 35,000  Level Memphis Center
Fri 07:06:30 PM 34.1078 -90.1414 54° Northeast 543 625 35,000  Level Memphis Center
Fri 07:07:29 PM 34.1911 -90.0081 53° Northeast 549 632 35,000  Level Memphis Center
Fri 07:08:30 PM 34.2781 -89.8619 54° Northeast 544 626 35,000  Level Memphis Center
Fri 07:09:29 PM 34.3692 -89.7131 53° Northeast 544 626 35,000  Level Memphis Center
Fri 07:10:29 PM 34.4603 -89.5636 53° Northeast 549 632 35,000  Level Memphis Center
Fri 07:11:29 PM 34.5489 -89.4142 54° Northeast 549 632 35,000  Level Memphis Center
Fri 07:12:29 PM 34.6394 -89.2642 54° Northeast 549 632 35,000  Level Memphis Center
Fri 07:13:29 PM 34.7258 -89.1189 54° Northeast 544 626 35,000  Level Memphis Center
Fri 07:14:29 PM 34.8478 -89.0158 35° Northeast 522 601 35,000  Level Memphis Center
Fri 07:15:29 PM 34.9828 -88.9708 15° North 506 582 35,000  Level Memphis Center
Fri 07:16:29 PM 35.0900 -88.8472 43° Northeast 494 568 35,000  Level Memphis Center
Fri 07:17:29 PM 35.1672 -88.6908 59° Northeast 522 601 35,000  Level Memphis Center
Fri 07:18:29 PM 35.2464 -88.5317 59° Northeast 539 620 35,000  Level Memphis Center
Fri 07:19:29 PM 35.3233 -88.3822 58° Northeast 539 620 35,000  Level Memphis Center
Fri 07:20:30 PM 35.4019 -88.2225 59° Northeast 539 620 35,000  Level Memphis Center
Fri 07:21:29 PM 35.4803 -88.0597 59° Northeast 546 628 35,000  Level Memphis Center
Fri 07:22:30 PM 35.5667 -87.8814 59° Northeast 546 628 35,000  Level Memphis Center
Fri 07:23:30 PM 35.6444 -87.7156 60° Northeast 546 628 35,000  Level Memphis Center
Fri 07:24:30 PM 35.7244 -87.5544 59° Northeast 554 638 35,000  Level Memphis Center
Fri 07:25:30 PM 35.8019 -87.3881 60° Northeast 554 638 35,000  Level Memphis Center
Fri 07:26:29 PM 35.8814 -87.2264 59° Northeast 554 638 35,000  Level Memphis Center
Fri 07:27:29 PM 35.9583 -87.0617 60° Northeast 554 638 35,000  Level Memphis Center
Fri 07:28:29 PM 36.0392 -86.8917 60° Northeast 554 638 35,000  Level Memphis Center
Fri 07:29:29 PM 36.1117 -86.7242 62° Northeast 559 643 35,000  Level Memphis Center
Fri 07:30:29 PM 36.1269 -86.5411 84° East 536 617 35,000  Level Memphis Center
Fri 07:31:29 PM 36.1131 -86.3619 95° East 527 606 35,000  Level Memphis Center
Fri 07:32:29 PM 36.0989 -86.1853 96° East 516 594 35,000  Level Memphis Center
Fri 07:34:53 PM 36.0669 -85.7803 95° East 515 593 35,000  Level Atlanta Center
Fri 07:35:53 PM 36.0547 -85.6056 95° East 515 593 35,000  Level Atlanta Center
Fri 07:36:53 PM 36.0400 -85.4306 96° East 515 593 35,000  Level Atlanta Center
Fri 07:37:53 PM 36.0250 -85.2608 96° East 509 586 35,000  Level Atlanta Center
Fri 07:38:53 PM 36.0122 -85.0911 95° East 499 574 35,000  Level Atlanta Center
Fri 07:39:53 PM 36.0008 -84.9267 95° East 494 568 35,000  Level Atlanta Center
Fri 07:40:53 PM 35.9853 -84.7572 96° East 494 568 35,000  Level Atlanta Center
Fri 07:41:53 PM 35.9672 -84.5956 98° East 489 563 35,000 -200 Level Atlanta Center
Fri 07:42:53 PM 35.9533 -84.4133 95° East 483 556 34,600 -650 Descending Atlanta Center
Fri 07:43:53 PM 35.9372 -84.2489 97° East 483 556 33,700 -800 Descending Atlanta Center
Fri 07:44:53 PM 35.9228 -84.0850 96° East 483 556 33,000 -350 Descending Atlanta Center
Fri 07:45:53 PM 35.9058 -83.9183 97° East 483 556 33,000 -850 Level Atlanta Center
Fri 07:46:53 PM 35.9014 -83.7492 92° East 483 556 31,300 -2,000 Descending Atlanta Center
Fri 07:47:53 PM 35.8969 -83.5850 92° East 478 550 29,000 -1,150 Descending Atlanta Center
Fri 07:48:53 PM 35.8939 -83.4108 91° East 483 556 29,000 -100 Level Atlanta Center
Fri 07:49:53 PM 35.8722 -83.2444 99° East 489 563 28,800 -600 Descending Atlanta Center
Fri 07:50:53 PM 35.8439 -83.0731 101° East 500 575 27,800 -1,000 Descending Atlanta Center
Fri 07:51:53 PM 35.8194 -82.8992 100° East 505 581 26,800 -1,050 Descending Atlanta Center
Fri 07:52:53 PM 35.7925 -82.7253 101° East 505 581 25,700 -1,450 Descending Atlanta Center
Fri 07:53:53 PM 35.7636 -82.5544 102° East 505 581 23,900 -1,950 Descending Atlanta Center
Fri 07:54:53 PM 35.7383 -82.3861 100° East 505 581 21,800 -2,450 Descending Atlanta Center
Fri 07:55:53 PM 35.7153 -82.2306 100° East 491 565 19,000 -2,750 Descending Atlanta Center
Fri 07:56:53 PM 35.6922 -82.0828 101° East 450 518 16,300 -2,600 Descending Atlanta Center
Fri 07:57:53 PM 35.6667 -81.9300 102° East 444 511 13,800 -2,265 Descending Atlanta Center
Fri 07:58:31 PM 35.6483 -81.8383 104° East 428 493 12,600 -1,778 Descending Atlanta Center
Fri 07:59:14 PM 35.6342 -81.7442 100° East 409 471 11,400 -1,171 Descending Atlanta Center
Fri 07:59:53 PM 35.6178 -81.6528 102° East 417 480 11,000 -393 Descending Atlanta Center
Fri 08:00:15 PM 35.6106 -81.6044 100° East 409 471 11,000  Level Atlanta Center
Fri 08:00:53 PM 35.5825 -81.5464 121° Southeast 396 456 11,000 -295 Level Atlanta Center
Fri 08:01:16 PM 35.5628 -81.5036 120° Southeast 324 373 10,700 -900 Descending Atlanta Center
Fri 08:01:53 PM 35.5531 -81.4403 101° East 350 403 10,100 -1,154 Descending Atlanta Center
Fri 08:02:34 PM 35.5450 -81.3536 96° East 332 382 9,200 -1,100 Descending Atlanta Center
Fri 08:02:53 PM 35.5422 -81.3283 98° East 336 387 9,000 -984 Descending Atlanta Center
Fri 08:03:35 PM 35.5342 -81.2392 96° East 332 382 8,200 -900 Descending Atlanta Center
Fri 08:03:53 PM 35.5333 -81.2061 92° East 325 374 8,100 -612 Descending Atlanta Center
Fri 08:04:24 PM 35.5322 -81.1550 92° East 295 339 7,700 -1,000 Descending Atlanta Center
Fri 08:04:53 PM 35.5331 -81.1067 89° East 299 344 7,100 -1,348 Descending Atlanta Center
Fri 08:05:53 PM 35.5142 -81.0231 105° East 266 306 5,700 -1,097 Descending Atlanta Center
Fri 08:06:26 PM 35.4886 -80.9958 139° Southeast 221 254 5,400 -400 Descending Atlanta Center
Fri 08:06:53 PM 35.4717 -80.9839 150° Southeast 220 253 5,300 -818 Descending Atlanta Center
Fri 08:07:32 PM 35.4406 -80.9900 189° South 122 140 4,500 -900 Descending Atlanta Center
Fri 08:07:53 PM 35.4342 -80.9878 164° South 160 184 4,400 -492 Descending Atlanta Center
Fri 08:08:33 PM 35.4028 -80.9864 178° South 131 151 4,000 -568 Descending Atlanta Center
Fri 08:09:28 PM 35.3694 -80.9825 175° South 141 162 3,500 -621 Descending Atlanta Center
Fri 08:10:29 PM 35.3275 -80.9789 176° South 145 167 2,800 -689 Descending Atlanta Center
Fri 08:11:30 PM 35.2919 -80.9750 175° South 125 144 2,100 -614 Descending Atlanta Center
Fri 08:12:36 PM 35.2564 -80.9739 179° South 115 132 1,500 -545 Descending Atlanta Center

Login

Don't have an account? Register now (free) for customized features, flight alerts, and more!